createdAt,value
2023-03-27T00:00:16.636Z,1.15
2023-03-27T00:02:50.137Z,0.73
2023-03-27T00:05:20.669Z,0.75
2023-03-27T00:08:02.996Z,0.40
2023-03-27T00:10:38.097Z,0.80
2023-03-27T00:13:08.276Z,0.95
2023-03-27T00:15:37.647Z,0.55
2023-03-27T00:18:06.222Z,0.22
2023-03-27T00:20:37.549Z,0.17
2023-03-27T00:23:06.463Z,0.10
2023-03-27T00:25:35.440Z,0.20
2023-03-27T00:30:49.790Z,0.20
2023-03-27T00:33:18.301Z,0.32
2023-03-27T00:35:48.862Z,0.10
2023-03-27T00:38:18.354Z,0.20
2023-03-27T00:40:48.009Z,0.52
2023-03-27T00:43:29.238Z,0.47
2023-03-27T00:46:02.779Z,0.20
2023-03-27T00:48:32.990Z,0.90
2023-03-27T00:51:03.352Z,0.60
2023-03-27T00:53:34.901Z,0.82
2023-03-27T00:56:04.915Z,0.60
2023-03-27T00:58:35.817Z,1.75
2023-03-27T01:01:08.075Z,0.80
2023-03-27T01:03:36.879Z,0.93
2023-03-27T01:06:17.125Z,1.00
2023-03-27T01:08:47.781Z,0.85
2023-03-27T01:11:20.985Z,1.08
2023-03-27T01:13:59.081Z,2.05
2023-03-27T01:16:30.935Z,1.25
2023-03-27T01:19:04.801Z,0.60
2023-03-27T01:24:33.467Z,1.02
2023-03-27T01:27:07.778Z,1.00
2023-03-27T01:29:52.910Z,1.10
2023-03-27T01:32:53.394Z,0.63
2023-03-27T01:35:38.898Z,0.70
2023-03-27T01:38:22.252Z,1.23
2023-03-27T01:40:53.144Z,1.70
2023-03-27T01:43:26.853Z,3.97
2023-03-27T01:45:58.701Z,2.13
2023-03-27T01:48:30.442Z,3.20
2023-03-27T01:51:01.609Z,3.20
2023-03-27T01:53:32.198Z,4.05
2023-03-27T01:56:03.901Z,4.65
2023-03-27T01:58:36.192Z,3.25
2023-03-27T02:01:05.631Z,2.72
2023-03-27T02:03:36.879Z,3.22
2023-03-27T02:06:08.832Z,2.50
2023-03-27T02:08:39.657Z,2.60
2023-03-27T02:11:10.004Z,3.00
2023-03-27T02:13:40.107Z,3.85
2023-03-27T02:16:11.475Z,2.35
2023-03-27T02:18:42.140Z,4.28
2023-03-27T02:21:10.891Z,3.38
2023-03-27T02:23:39.701Z,2.75
2023-03-27T02:26:11.926Z,3.03
2023-03-27T02:28:52.251Z,3.55
2023-03-27T02:31:38.171Z,6.05
2023-03-27T02:34:17.158Z,3.70
2023-03-27T02:37:00.484Z,3.50
2023-03-27T02:39:33.817Z,3.67
2023-03-27T02:42:05.551Z,4.00
2023-03-27T02:44:35.487Z,3.35
2023-03-27T02:47:17.026Z,5.10
2023-03-27T02:49:48.212Z,3.50
2023-03-27T02:52:28.110Z,5.55
2023-03-27T02:55:06.141Z,3.70
2023-03-27T02:57:40.283Z,5.03
2023-03-27T03:00:18.601Z,6.35
2023-03-27T03:02:48.753Z,4.05
2023-03-27T03:05:25.673Z,5.63
2023-03-27T03:07:58.238Z,7.13
2023-03-27T03:10:28.444Z,9.48
2023-03-27T03:12:58.282Z,5.45
2023-03-27T03:15:27.158Z,5.15
2023-03-27T03:17:56.034Z,5.90
2023-03-27T03:23:21.111Z,7.28
2023-03-27T03:25:59.222Z,9.32
2023-03-27T03:28:29.241Z,8.85
2023-03-27T03:31:01.499Z,7.07
2023-03-27T03:33:30.634Z,6.43
2023-03-27T03:36:00.933Z,8.70
2023-03-27T03:38:30.327Z,10.50
2023-03-27T03:41:07.536Z,9.20
2023-03-27T03:43:37.658Z,6.75
2023-03-27T03:46:12.120Z,11.32
2023-03-27T03:48:41.588Z,5.55
2023-03-27T03:51:09.981Z,9.80
2023-03-27T03:53:38.728Z,6.95
2023-03-27T03:56:07.848Z,9.13
2023-03-27T03:58:40.904Z,5.78
2023-03-27T04:01:16.706Z,9.07
2023-03-27T04:03:45.675Z,7.10
2023-03-27T04:06:20.481Z,6.03
2023-03-27T04:08:49.870Z,7.63
2023-03-27T04:11:18.260Z,8.18
2023-03-27T04:13:48.331Z,9.77
2023-03-27T04:16:16.902Z,5.43
2023-03-27T04:18:45.674Z,6.88
2023-03-27T04:21:18.991Z,7.05
2023-03-27T04:23:48.777Z,7.72
2023-03-27T04:26:17.542Z,7.85
2023-03-27T04:28:46.717Z,4.88
2023-03-27T04:31:19.777Z,5.95
2023-03-27T04:33:55.303Z,7.63
2023-03-27T04:36:27.305Z,6.75
2023-03-27T04:38:57.409Z,7.60
2023-03-27T04:45:23.572Z,6.07
2023-03-27T04:47:54.739Z,7.57
2023-03-27T04:50:23.684Z,9.38
2023-03-27T04:52:58.585Z,6.43
2023-03-27T04:55:27.633Z,9.27
2023-03-27T04:58:00.468Z,9.80
2023-03-27T05:00:29.321Z,7.00
2023-03-27T05:03:01.176Z,6.20
2023-03-27T05:05:29.924Z,6.47
2023-03-27T05:07:58.550Z,8.55
2023-03-27T05:10:27.264Z,5.18
2023-03-27T05:12:58.367Z,5.35
2023-03-27T05:15:30.369Z,12.27
2023-03-27T05:18:00.693Z,6.95
2023-03-27T05:20:29.705Z,11.05
2023-03-27T05:22:58.323Z,5.97
2023-03-27T05:25:27.218Z,8.23
2023-03-27T05:27:55.959Z,8.50
2023-03-27T05:30:26.397Z,8.48
2023-03-27T05:32:59.482Z,6.50
2023-03-27T05:35:29.779Z,6.65
2023-03-27T05:37:58.977Z,5.72
2023-03-27T05:40:28.367Z,7.97
2023-03-27T05:42:58.377Z,6.40
2023-03-27T05:45:26.999Z,5.07
2023-03-27T05:47:56.760Z,5.53
2023-03-27T05:50:26.792Z,7.72
2023-03-27T05:52:59.612Z,7.88
2023-03-27T05:55:28.421Z,5.95
2023-03-27T05:57:57.005Z,8.90
2023-03-27T06:00:27.389Z,6.63
2023-03-27T06:02:56.340Z,6.35
2023-03-27T06:05:25.488Z,5.43
2023-03-27T06:07:54.354Z,8.27
2023-03-27T06:10:24.391Z,11.45
2023-03-27T06:13:00.330Z,6.93
2023-03-27T06:15:29.059Z,6.55
2023-03-27T06:17:57.762Z,5.93
2023-03-27T06:20:27.641Z,5.90
2023-03-27T06:22:56.886Z,5.13
2023-03-27T06:25:27.211Z,5.72
2023-03-27T06:27:56.369Z,3.67
2023-03-27T06:30:26.055Z,4.03
2023-03-27T06:32:57.645Z,8.00
2023-03-27T06:35:26.955Z,5.10
2023-03-27T06:37:56.164Z,7.88
2023-03-27T06:40:27.982Z,6.97
2023-03-27T06:42:58.373Z,6.63
2023-03-27T06:45:28.592Z,4.95
2023-03-27T06:48:13.594Z,9.75
2023-03-27T06:50:46.599Z,4.57
2023-03-27T06:53:26.709Z,8.80
2023-03-27T06:55:58.266Z,6.60
2023-03-27T06:58:27.364Z,7.15
2023-03-27T07:00:56.153Z,4.68
2023-03-27T07:03:25.851Z,5.30
2023-03-27T07:05:55.723Z,7.80
2023-03-27T07:08:25.541Z,5.15
2023-03-27T07:13:28.033Z,6.50
2023-03-27T07:15:56.498Z,4.90
2023-03-27T07:18:25.327Z,3.45
2023-03-27T07:20:53.759Z,5.07
2023-03-27T07:23:22.346Z,5.43
2023-03-27T07:25:52.317Z,4.95
2023-03-27T07:28:21.027Z,4.50
2023-03-27T07:30:50.962Z,7.25
2023-03-27T07:33:19.801Z,3.92
2023-03-27T07:35:49.531Z,2.45
2023-03-27T07:38:18.898Z,5.18
2023-03-27T07:40:47.604Z,3.92
2023-03-27T07:43:16.500Z,5.28
2023-03-27T07:45:44.892Z,2.63
2023-03-27T07:48:16.341Z,2.83
2023-03-27T07:50:45.228Z,4.97
2023-03-27T07:53:33.884Z,4.00
2023-03-27T07:56:02.511Z,5.45
2023-03-27T07:58:31.107Z,5.47
2023-03-27T08:01:02.865Z,5.03
2023-03-27T08:03:33.090Z,4.53
2023-03-27T08:06:02.623Z,4.05
2023-03-27T08:08:31.328Z,5.32
2023-03-27T08:11:00.993Z,3.40
2023-03-27T08:13:29.624Z,5.10
2023-03-27T08:16:04.648Z,2.65
2023-03-27T08:18:39.506Z,2.03
2023-03-27T08:21:09.614Z,4.15
2023-03-27T08:23:38.619Z,6.88
2023-03-27T08:26:07.605Z,9.07
2023-03-27T08:28:37.194Z,4.13
2023-03-27T08:31:11.733Z,3.55
2023-03-27T08:33:42.910Z,4.43
2023-03-27T08:36:14.484Z,4.93
2023-03-27T08:38:43.418Z,3.58
2023-03-27T08:41:22.636Z,3.95
2023-03-27T08:43:51.407Z,6.90
2023-03-27T08:46:23.694Z,6.80
2023-03-27T08:48:56.397Z,4.32
2023-03-27T08:51:27.261Z,4.25
2023-03-27T08:53:58.326Z,6.68
2023-03-27T08:56:27.534Z,4.10
2023-03-27T08:58:56.309Z,7.20
2023-03-27T09:01:29.459Z,5.65
2023-03-27T09:04:05.114Z,3.28
2023-03-27T09:06:38.368Z,6.85
2023-03-27T09:09:11.928Z,7.93
2023-03-27T09:11:46.376Z,3.95
2023-03-27T09:14:22.693Z,3.20
2023-03-27T09:16:52.162Z,5.93
2023-03-27T09:19:25.072Z,3.28
2023-03-27T09:21:58.063Z,5.47
2023-03-27T09:24:29.656Z,1.60
2023-03-27T09:27:07.061Z,6.80
2023-03-27T09:29:38.232Z,6.85
2023-03-27T09:32:11.633Z,6.47
2023-03-27T09:34:43.835Z,3.78
2023-03-27T09:37:18.075Z,4.93
2023-03-27T09:39:48.681Z,2.90
2023-03-27T09:42:21.121Z,6.20
2023-03-27T09:44:52.900Z,5.18
2023-03-27T09:47:27.543Z,3.90
2023-03-27T09:49:59.851Z,2.78
2023-03-27T09:52:36.295Z,3.80
2023-03-27T09:55:09.020Z,5.03
2023-03-27T09:57:38.657Z,5.15
2023-03-27T10:00:20.061Z,5.43
2023-03-27T10:02:48.880Z,2.97
2023-03-27T10:05:22.335Z,3.58
2023-03-27T10:07:53.092Z,6.07
2023-03-27T10:10:22.464Z,4.75
2023-03-27T10:12:55.947Z,3.42
2023-03-27T10:15:33.911Z,3.10
2023-03-27T10:18:04.736Z,3.58
2023-03-27T10:20:34.936Z,4.57
2023-03-27T10:23:05.620Z,4.25
2023-03-27T10:25:35.943Z,1.88
2023-03-27T10:28:10.959Z,6.28
2023-03-27T10:30:40.669Z,3.53
2023-03-27T10:33:09.515Z,5.00
2023-03-27T10:35:40.308Z,4.65
2023-03-27T10:38:13.052Z,7.95
2023-03-27T10:40:43.558Z,5.90
2023-03-27T10:43:13.324Z,4.35
2023-03-27T10:45:45.764Z,3.50
2023-03-27T10:48:22.217Z,3.53
2023-03-27T10:50:57.736Z,5.18
2023-03-27T10:53:30.423Z,2.10
2023-03-27T10:56:02.867Z,7.25
2023-03-27T10:58:34.832Z,1.90
2023-03-27T11:01:06.409Z,4.00
2023-03-27T11:03:36.655Z,3.33
2023-03-27T11:06:08.438Z,2.83
2023-03-27T11:08:40.637Z,4.85
2023-03-27T11:11:11.152Z,2.70
2023-03-27T11:13:43.066Z,4.88
2023-03-27T11:16:15.283Z,1.90
2023-03-27T11:18:47.255Z,3.97
2023-03-27T11:21:20.166Z,3.22
2023-03-27T11:23:52.231Z,3.93
2023-03-27T11:26:23.440Z,3.03
2023-03-27T11:28:54.546Z,1.70
2023-03-27T11:31:32.017Z,4.88
2023-03-27T11:34:06.220Z,1.42
2023-03-27T11:36:52.731Z,2.65
2023-03-27T11:39:27.314Z,4.38
2023-03-27T11:41:58.340Z,8.73
2023-03-27T11:44:30.475Z,4.95
2023-03-27T11:47:05.605Z,6.72
2023-03-27T11:49:41.107Z,5.13
2023-03-27T11:52:14.360Z,4.03
2023-03-27T11:54:50.621Z,5.70
2023-03-27T11:57:23.446Z,7.10
2023-03-27T12:00:06.440Z,5.70
2023-03-27T12:02:52.705Z,10.13
2023-03-27T12:05:25.156Z,5.18
2023-03-27T12:07:57.830Z,4.70
2023-03-27T12:10:31.890Z,2.65
2023-03-27T12:13:28.844Z,4.18
2023-03-27T12:16:11.112Z,2.25
2023-03-27T12:18:59.470Z,2.38
2023-03-27T12:21:37.291Z,2.30
2023-03-27T12:24:21.683Z,1.77
2023-03-27T12:27:05.598Z,2.00
2023-03-27T12:29:44.064Z,1.95
2023-03-27T12:32:20.336Z,2.75
2023-03-27T12:34:54.490Z,4.15
2023-03-27T12:37:25.679Z,3.15
2023-03-27T12:39:55.502Z,3.92
2023-03-27T12:42:44.737Z,2.25
2023-03-27T12:45:19.532Z,6.03
2023-03-27T12:48:06.614Z,3.25
2023-03-27T12:50:35.811Z,16.38
2023-03-27T12:53:05.614Z,23.23
2023-03-27T12:55:35.549Z,20.45
2023-03-27T12:58:05.325Z,11.80
2023-03-27T13:00:35.976Z,18.33
2023-03-27T13:03:19.368Z,22.23
2023-03-27T13:06:06.532Z,8.77
2023-03-27T13:08:50.929Z,17.77
2023-03-27T13:11:23.868Z,10.48
2023-03-27T13:14:09.663Z,9.90
2023-03-27T13:16:47.071Z,5.90
2023-03-27T13:19:23.840Z,7.63
2023-03-27T13:21:57.852Z,5.82
2023-03-27T13:24:35.391Z,5.57
2023-03-27T13:27:13.681Z,4.20
2023-03-27T13:29:42.563Z,2.50
2023-03-27T13:32:26.208Z,3.28
2023-03-27T13:35:09.954Z,3.42
2023-03-27T13:38:00.700Z,2.63
2023-03-27T13:40:31.173Z,3.60
2023-03-27T13:43:14.359Z,2.60
2023-03-27T13:45:47.097Z,6.53
2023-03-27T13:48:40.020Z,2.95
2023-03-27T13:51:29.728Z,6.93
2023-03-27T13:54:32.180Z,2.70
2023-03-27T13:57:07.139Z,7.35
2023-03-27T14:00:04.114Z,2.83
2023-03-27T14:02:46.175Z,3.72
2023-03-27T14:05:26.311Z,2.38
2023-03-27T14:08:07.881Z,2.63
2023-03-27T14:11:15.772Z,2.95
2023-03-27T14:13:57.762Z,3.75
2023-03-27T14:16:46.348Z,2.72
2023-03-27T14:19:29.869Z,3.08
2023-03-27T14:22:11.359Z,4.55
2023-03-27T14:24:46.278Z,2.78
2023-03-27T14:27:20.299Z,2.72
2023-03-27T14:30:09.011Z,1.70
2023-03-27T14:32:46.897Z,1.85
2023-03-27T14:35:33.263Z,1.90
2023-03-27T14:38:31.904Z,1.92
2023-03-27T14:44:07.364Z,3.50
2023-03-27T14:46:39.812Z,1.75
2023-03-27T14:49:24.802Z,3.40
2023-03-27T14:52:12.672Z,2.40
2023-03-27T14:55:10.721Z,7.10
2023-03-27T14:57:41.567Z,8.52
2023-03-27T15:00:34.799Z,3.33
2023-03-27T15:03:15.054Z,4.70
2023-03-27T15:05:57.711Z,2.33
2023-03-27T15:08:29.269Z,2.20
2023-03-27T15:11:11.713Z,8.65
2023-03-27T15:13:40.517Z,2.90
2023-03-27T15:16:10.418Z,4.25
2023-03-27T15:18:45.816Z,3.30
2023-03-27T15:21:17.635Z,2.35
2023-03-27T15:23:50.211Z,2.03
2023-03-27T15:26:21.772Z,2.20
2023-03-27T15:28:54.676Z,1.83
2023-03-27T15:31:25.966Z,2.40
2023-03-27T15:34:02.380Z,2.53
2023-03-27T15:36:34.335Z,4.45
2023-03-27T15:39:04.237Z,3.63
2023-03-27T15:41:42.737Z,1.48
2023-03-27T15:44:27.336Z,2.40
2023-03-27T15:46:58.018Z,3.15
2023-03-27T15:49:31.639Z,2.55
2023-03-27T15:52:19.198Z,2.50
2023-03-27T15:54:55.394Z,2.40
2023-03-27T15:57:35.590Z,2.70
2023-03-27T16:00:12.676Z,1.65
2023-03-27T16:02:55.697Z,2.40
2023-03-27T16:05:26.171Z,1.45
2023-03-27T16:08:08.512Z,1.58
2023-03-27T16:10:40.665Z,2.22
2023-03-27T16:13:23.260Z,1.73
2023-03-27T16:16:04.190Z,3.20
2023-03-27T16:18:34.703Z,2.13
2023-03-27T16:21:20.583Z,1.92
2023-03-27T16:23:49.622Z,1.80
2023-03-27T16:26:31.763Z,1.67
2023-03-27T16:32:14.314Z,1.65
2023-03-27T16:34:44.102Z,2.92
2023-03-27T16:37:14.307Z,2.50
2023-03-27T16:39:43.801Z,1.95
2023-03-27T16:42:14.304Z,1.58
2023-03-27T16:44:42.941Z,1.58
2023-03-27T16:47:11.992Z,2.75
2023-03-27T16:49:41.018Z,2.78
2023-03-27T16:52:09.712Z,1.63
2023-03-27T16:54:41.895Z,1.98
2023-03-27T16:57:26.617Z,3.70
2023-03-27T16:59:56.390Z,3.50
2023-03-27T17:02:34.797Z,2.60
2023-03-27T17:05:04.457Z,3.03
2023-03-27T17:07:33.827Z,2.88
2023-03-27T17:10:04.576Z,2.63
2023-03-27T17:12:33.483Z,2.60
2023-03-27T17:15:05.358Z,2.72
2023-03-27T17:17:42.511Z,2.45
2023-03-27T17:20:15.864Z,4.78
2023-03-27T17:22:54.227Z,1.90
2023-03-27T17:25:31.622Z,2.83
2023-03-27T17:28:00.497Z,5.63
2023-03-27T17:30:39.484Z,4.03
2023-03-27T17:33:12.358Z,3.70
2023-03-27T17:35:41.304Z,2.50
2023-03-27T17:38:12.884Z,4.15
2023-03-27T17:40:43.284Z,3.90
2023-03-27T17:43:12.488Z,3.90
2023-03-27T17:45:42.695Z,3.58
2023-03-27T17:48:19.538Z,5.65
2023-03-27T17:51:01.173Z,4.25
2023-03-27T17:53:33.976Z,5.25
2023-03-27T17:56:04.324Z,5.30
2023-03-27T17:58:34.532Z,6.00
2023-03-27T18:01:03.505Z,4.28
2023-03-27T18:03:32.443Z,3.80
2023-03-27T18:06:06.264Z,5.93
2023-03-27T18:08:35.320Z,4.47
2023-03-27T18:11:09.044Z,3.03
2023-03-27T18:13:37.817Z,3.70
2023-03-27T18:16:08.905Z,2.47
2023-03-27T18:18:37.552Z,3.05
2023-03-27T18:21:06.299Z,2.83
2023-03-27T18:23:35.310Z,3.75
2023-03-27T18:26:06.661Z,5.95
2023-03-27T18:28:35.967Z,5.82
2023-03-27T18:31:05.968Z,5.28
2023-03-27T18:33:35.381Z,4.50
2023-03-27T18:36:04.508Z,3.78
2023-03-27T18:38:33.345Z,2.95
2023-03-27T18:41:02.096Z,3.63
2023-03-27T18:43:32.202Z,5.78
2023-03-27T18:46:02.097Z,5.00
2023-03-27T18:48:35.980Z,4.63
2023-03-27T18:51:05.490Z,1.70
2023-03-27T18:53:34.232Z,2.28
2023-03-27T18:56:03.387Z,2.67
2023-03-27T18:58:33.973Z,2.75
2023-03-27T19:01:02.710Z,1.70
2023-03-27T19:03:35.022Z,0.85
2023-03-27T19:06:04.778Z,2.03
2023-03-27T19:08:33.977Z,2.38
2023-03-27T19:11:22.807Z,5.25
2023-03-27T19:14:34.755Z,11.52
2023-03-27T19:17:04.971Z,9.70
2023-03-27T19:19:38.088Z,8.23
2023-03-27T19:22:16.927Z,9.23
2023-03-27T19:24:45.432Z,3.08
2023-03-27T19:27:23.629Z,2.03
2023-03-27T19:29:53.419Z,2.00
2023-03-27T19:32:24.377Z,1.25
2023-03-27T19:34:53.263Z,1.80
2023-03-27T19:37:21.957Z,1.05
2023-03-27T19:39:50.700Z,2.30
2023-03-27T19:42:19.893Z,2.45
2023-03-27T19:44:48.317Z,1.80
2023-03-27T19:47:17.037Z,3.00
2023-03-27T19:49:47.124Z,2.03
2023-03-27T19:52:17.198Z,2.00
2023-03-27T19:54:53.953Z,2.30
2023-03-27T19:57:22.668Z,2.65
2023-03-27T19:59:51.630Z,3.95
2023-03-27T20:02:25.242Z,5.10
2023-03-27T20:04:55.430Z,4.75
2023-03-27T20:07:24.024Z,4.78
2023-03-27T20:10:11.317Z,3.25
2023-03-27T20:12:39.784Z,2.42
2023-03-27T20:15:12.320Z,3.17
2023-03-27T20:17:41.917Z,2.80
2023-03-27T20:20:12.565Z,2.75
2023-03-27T20:22:56.405Z,3.33
2023-03-27T20:25:28.077Z,2.75
2023-03-27T20:27:56.820Z,4.63
2023-03-27T20:30:25.514Z,3.75
2023-03-27T20:32:54.051Z,4.00
2023-03-27T20:35:25.586Z,2.70
2023-03-27T20:37:57.670Z,2.60
2023-03-27T20:40:31.346Z,2.45
2023-03-27T20:43:06.018Z,3.42
2023-03-27T20:45:34.709Z,2.40
2023-03-27T20:48:04.552Z,2.67
2023-03-27T20:50:44.712Z,3.58
2023-03-27T20:53:13.139Z,3.33
2023-03-27T20:56:02.748Z,3.85
2023-03-27T20:58:33.632Z,2.83
2023-03-27T21:01:12.458Z,4.72
2023-03-27T21:03:49.266Z,3.15
2023-03-27T21:06:20.095Z,4.13
2023-03-27T21:08:49.012Z,3.45
2023-03-27T21:11:17.531Z,3.28
2023-03-27T21:13:46.034Z,3.85
2023-03-27T21:16:14.681Z,2.85
2023-03-27T21:18:43.075Z,2.75
2023-03-27T21:21:12.018Z,4.47
2023-03-27T21:23:42.192Z,3.25
2023-03-27T21:26:10.914Z,2.75
2023-03-27T21:28:39.269Z,3.58
2023-03-27T21:31:08.883Z,2.45
2023-03-27T21:33:37.512Z,2.90
2023-03-27T21:36:06.846Z,2.50
2023-03-27T21:38:35.640Z,3.67
2023-03-27T21:41:05.976Z,3.22
2023-03-27T21:43:34.727Z,3.58
2023-03-27T21:46:03.782Z,2.60
2023-03-27T21:48:32.635Z,2.58
2023-03-27T21:51:01.441Z,3.85
2023-03-27T21:53:30.184Z,3.88
2023-03-27T21:55:58.998Z,2.75
2023-03-27T21:58:29.679Z,2.60
2023-03-27T22:00:58.828Z,3.10
2023-03-27T22:03:27.595Z,4.20
2023-03-27T22:06:10.164Z,3.38
2023-03-27T22:08:40.913Z,2.75
2023-03-27T22:11:09.721Z,2.58
2023-03-27T22:13:40.120Z,3.47
2023-03-27T22:16:09.781Z,7.43
2023-03-27T22:18:38.259Z,6.40
2023-03-27T22:21:17.167Z,3.80
2023-03-27T22:23:46.120Z,2.97
2023-03-27T22:26:14.920Z,3.50
2023-03-27T22:28:44.697Z,3.67
2023-03-27T22:31:13.389Z,3.40
2023-03-27T22:33:41.982Z,3.45
2023-03-27T22:36:11.732Z,3.70
2023-03-27T22:38:40.939Z,4.85
2023-03-27T22:41:10.317Z,4.45
2023-03-27T22:43:39.018Z,3.08
2023-03-27T22:46:10.339Z,4.47
2023-03-27T22:48:39.508Z,5.07
2023-03-27T22:51:08.567Z,3.55
2023-03-27T22:53:37.656Z,6.18
2023-03-27T22:56:07.398Z,3.15
2023-03-27T22:58:43.586Z,2.83
2023-03-27T23:01:13.495Z,5.00
2023-03-27T23:03:42.205Z,3.78
2023-03-27T23:06:17.841Z,5.32
2023-03-27T23:08:46.627Z,5.20
2023-03-27T23:11:15.474Z,4.53
2023-03-27T23:13:43.844Z,3.60
2023-03-27T23:16:14.268Z,3.53
2023-03-27T23:18:42.911Z,4.65
2023-03-27T23:21:12.776Z,3.67
2023-03-27T23:23:41.589Z,3.35
2023-03-27T23:26:10.562Z,3.47
2023-03-27T23:28:39.876Z,4.10
2023-03-27T23:31:09.408Z,3.88
2023-03-27T23:33:40.382Z,4.15
2023-03-27T23:36:10.019Z,2.63
2023-03-27T23:38:38.531Z,3.85
2023-03-27T23:41:07.673Z,4.35
2023-03-27T23:43:36.717Z,3.38
2023-03-27T23:46:08.637Z,5.97
2023-03-27T23:48:37.193Z,4.18
2023-03-27T23:51:07.775Z,3.90
2023-03-27T23:53:36.737Z,4.05
2023-03-27T23:56:05.374Z,3.78
2023-03-27T23:58:33.876Z,3.97
